Time;durP1;ratioP1;P1;durP2;ratioP2;P2;SDS_P1;SDS_P2;PMS_P1;PMS_P2;Temp;Humidity;BMP_temperature;BMP_pressure;BME280_temperature;BME280_humidity;BME280_pressure;Samples;Min_cycle;Max_cycle;Signal;HPM_P1;HPM_P2
2022/07/03 06:32:02;;;;;;;4.80;3.40;;;;;;;21.11;76.55;97407.28;6106479;23;20219;-92
2022/07/03 06:34:29;;;;;;;6.20;3.87;;;;;;;22.26;76.04;97599.91;6052638;23;20163;-93
2022/07/03 06:36:56;;;;;;;4.50;3.47;;;;;;;19.25;75.17;97096.16;6080097;23;20387;-92
2022/07/03 06:39:23;;;;;;;4.23;3.83;;;;;;;22.60;75.18;97659.78;6076921;23;20226;-93
2022/07/03 06:41:49;;;;;;;3.97;3.40;;;;;;;22.21;74.43;97609.13;6073701;23;20170;-92
2022/07/03 06:44:16;;;;;;;6.17;3.50;;;;;;;22.36;73.99;97620.69;6075110;23;20206;-92
2022/07/03 06:46:43;;;;;;;5.10;3.83;;;;;;;18.77;73.42;96984.25;6073976;23;20227;-93
2022/07/03 06:49:11;;;;;;;6.57;4.10;;;;;;;19.51;73.28;97125.03;6124070;23;20175;-92
2022/07/03 06:51:38;;;;;;;4.40;4.00;;;;;;;20.48;72.21;97335.50;6099985;23;20166;-93
2022/07/03 06:54:05;;;;;;;4.70;4.30;;;;;;;20.71;72.93;97353.25;6097777;23;20175;-91
2022/07/03 06:56:32;;;;;;;4.37;3.93;;;;;;;20.70;70.93;97337.88;6099209;23;20179;-92
2022/07/03 06:59:11;;;;;;;8.23;3.90;;;;;;;20.57;72.68;97302.63;6100442;23;20167;-92
2022/07/03 07:01:38;;;;;;;4.27;3.70;;;;;;;18.93;72.10;97025.50;6126054;23;20179;-93
2022/07/03 07:04:05;;;;;;;7.10;4.23;;;;;;;20.58;73.67;97300.09;6100300;23;20214;-94
2022/07/03 07:06:34;;;;;;;4.53;4.07;;;;;;;21.19;72.56;97412.59;6117892;23;20207;-89
2022/07/03 07:09:02;;;;;;;3.77;3.47;;;;;;;20.93;72.45;97380.31;6094903;23;20226;-91
2022/07/03 07:11:29;;;;;;;4.33;3.93;;;;;;;20.45;73.38;97327.75;6093797;23;20202;-91
2022/07/03 07:14:09;;;;;;;4.13;3.47;;;;;;;18.70;73.86;97012.84;6095843;23;20181;-90
2022/07/03 07:16:50;;;;;;;6.37;4.07;;;;;;;20.49;73.20;97334.69;6073759;23;20198;-90
2022/07/03 07:19:17;;;;;;;4.77;3.70;;;;;;;18.90;73.23;97053.41;6069334;23;20226;-92
2022/07/03 07:21:43;;;;;;;4.40;3.63;;;;;;;21.17;72.47;97450.88;6072179;23;20214;-91
2022/07/03 07:24:11;;;;;;;7.07;4.03;;;;;;;18.56;72.86;96950.50;6092644;23;20202;-91
2022/07/03 07:26:53;;;;;;;4.17;3.80;;;;;;;20.64;nan;97342.81;6094777;23;20218;-93
2022/07/03 07:29:33;;;;;;;3.80;3.50;;;;;;;20.82;72.80;97371.44;6106505;23;20170;-93
2022/07/03 07:32:14;;;;;;;3.73;3.43;;;;;;;18.75;73.03;97083.47;6106943;23;20167;-94
2022/07/03 07:34:41;;;;;;;4.17;3.50;;;;;;;20.23;73.69;97253.91;6077191;23;20163;-93
2022/07/03 07:37:08;;;;;;;3.50;3.20;;;;;;;20.48;73.18;97320.19;6094212;23;20346;-90
2022/07/03 07:39:36;;;;;;;3.73;3.40;;;;;;;22.26;73.38;97622.94;6119439;23;20284;-91
2022/07/03 07:42:03;;;;;;;4.10;3.70;;;;;;;22.21;73.31;97598.88;6094174;23;20198;-94
2022/07/03 07:44:30;;;;;;;3.70;3.40;;;;;;;19.95;72.95;97185.84;6070612;23;20179;-90
2022/07/03 07:46:56;;;;;;;3.70;3.40;;;;;;;19.66;73.50;97179.88;6093559;23;20230;-93
2022/07/03 07:49:37;;;;;;;6.03;3.50;;;;;;;20.63;73.58;97297.69;6078961;23;20207;-91
2022/07/03 07:52:17;;;;;;;10.50;3.60;;;;;;;21.38;73.38;97486.47;6100477;23;20182;-90
2022/07/03 07:54:44;;;;;;;4.17;3.30;;;;;;;18.74;73.29;96990.09;6073217;23;20185;-90
2022/07/03 07:57:11;;;;;;;3.47;3.17;;;;;;;19.49;73.08;97117.34;6072213;23;20191;-91
2022/07/03 07:59:51;;;;;;;3.60;3.30;;;;;;;20.36;73.11;97315.59;6100629;23;20179;-92
2022/07/03 08:08:07;;;;;;;3.73;3.43;;;;;;;18.57;72.83;96960.72;6108419;23;20518;-90
2022/07/03 08:10:43;;;;;;;3.40;3.10;;;;;;;22.15;73.56;97540.72;6094307;23;20196;-91
2022/07/03 08:13:23;;;;;;;4.20;3.67;;;;;;;20.30;73.27;97217.53;6099328;23;20175;-92
2022/07/03 08:16:04;;;;;;;3.73;3.30;;;;;;;19.54;73.84;97125.97;6099010;23;20179;-92
2022/07/03 08:18:44;;;;;;;10.03;3.90;;;;;;;20.65;73.99;97268.81;6120051;23;20181;-90
2022/07/03 08:21:12;;;;;;;5.90;3.40;;;;;;;20.20;73.86;97215.56;6068113;23;20187;-90
2022/07/03 08:23:53;;;;;;;13.10;3.70;;;;;;;20.79;73.46;97312.63;6096977;23;20183;-91
2022/07/03 08:26:20;;;;;;;13.23;4.43;;;;;;;21.05;73.82;97368.75;6090040;23;20250;-92
2022/07/03 08:29:00;;;;;;;12.50;4.33;;;;;;;20.36;73.00;97250.91;6096795;23;20207;-92
2022/07/03 08:31:27;;;;;;;16.27;4.47;;;;;;;20.80;73.19;97365.41;6090658;23;20182;-91
2022/07/03 08:34:08;;;;;;;16.77;4.40;;;;;;;19.94;73.34;97189.25;6099807;23;20171;-91
2022/07/03 08:36:49;;;;;;;4.57;3.57;;;;;;;18.80;73.84;96930.88;6100398;23;20214;-91
2022/07/03 08:39:29;;;;;;;12.00;3.80;;;;;;;18.75;73.76;96961.28;6100486;23;20174;-91
2022/07/03 08:42:13;;;;;;;6.63;3.60;;;;;;;19.67;73.31;97078.78;6120866;23;20631;-90
2022/07/03 08:44:53;;;;;;;6.57;3.70;;;;;;;19.69;73.48;97123.88;6120497;23;20175;-90
2022/07/03 08:47:20;;;;;;;6.20;3.47;;;;;;;21.18;73.05;97406.66;6119441;23;20199;-90
2022/07/03 08:50:01;;;;;;;5.57;3.33;;;;;;;19.25;73.67;97021.41;6123312;23;20175;-91
2022/07/03 08:52:42;;;;;;;7.13;3.60;;;;;;;19.94;72.89;97134.00;6122478;23;20175;-89
2022/07/03 08:55:23;;;;;;;7.40;3.60;;;;;;;21.77;73.61;97467.16;6100585;23;20175;-92
2022/07/03 08:58:14;;;;;;;5.23;3.47;;;;;;;20.52;72.29;97263.31;6126789;23;20195;-91
2022/07/03 09:00:55;;;;;;;2.70;2.50;;;;;;;20.81;73.78;97267.56;6101677;23;20645;-90
2022/07/03 09:03:35;;;;;;;2.93;2.70;;;;;;;20.07;74.46;97139.47;6125684;23;20206;-89
2022/07/03 09:06:16;;;;;;;3.00;2.70;;;;;;;20.97;73.80;97279.97;6101977;23;20190;-90
2022/07/03 09:08:56;;;;;;;3.73;2.73;;;;;;;19.41;73.79;97027.03;6123096;23;20234;-90
2022/07/03 09:11:56;;;;;;;2.40;2.20;;;;;;;23.85;73.21;97773.34;6102039;23;20159;-90
2022/07/03 09:14:39;;;;;;;3.23;2.50;;;;;;;19.78;72.90;97136.06;6149263;23;20203;-90
2022/07/03 09:17:20;;;;;;;3.10;2.57;;;;;;;19.06;73.05;96925.75;6142024;23;20194;-90
2022/07/03 09:20:00;;;;;;;4.70;3.53;;;;;;;20.35;73.78;97147.09;6123702;23;20519;-91
2022/07/03 09:22:28;;;;;;;4.57;2.80;;;;;;;21.13;73.42;97285.53;6148631;23;20175;-89
2022/07/03 09:25:06;;;;;;;4.37;2.97;;;;;;;23.91;73.74;97754.63;6108867;23;20175;-89
2022/07/03 09:27:33;;;;;;;3.40;3.10;;;;;;;22.65;73.60;97567.69;6129172;23;20249;-90
2022/07/03 09:33:58;;;;;;;2.87;2.67;;;;;;;18.43;73.25;96877.13;6143721;23;20220;-91
2022/07/03 09:36:51;;;;;;;4.37;2.97;;;;;;;23.90;73.78;97753.78;6150230;23;20174;-90
2022/07/03 09:39:30;;;;;;;4.47;3.10;;;;;;;20.24;73.27;97134.03;6140880;23;20241;-93
2022/07/03 09:42:03;;;;;;;3.40;2.97;;;;;;;23.91;74.11;97757.19;6106397;23;20595;-90
2022/07/03 09:44:35;;;;;;;3.50;2.83;;;;;;;20.98;74.05;97251.03;6131875;23;20581;-90
2022/07/03 09:47:08;;;;;;;3.13;2.60;;;;;;;20.64;74.14;97236.44;6106851;23;20250;-89
2022/07/03 09:49:50;;;;;;;3.87;2.60;;;;;;;20.20;73.52;97147.53;6112163;23;20214;-91
2022/07/03 09:52:25;;;;;;;3.67;3.00;;;;;;;20.33;74.22;97187.88;6114466;23;20178;-91
2022/07/03 09:54:52;;;;;;;2.70;2.50;;;;;;;20.81;74.69;97237.75;6115419;23;20170;-90
2022/07/03 09:57:19;;;;;;;2.80;2.60;;;;;;;22.48;76.02;97522.81;6115153;23;20195;-90
2022/07/03 10:00:42;;;;;;;5.47;3.20;;;;;;;19.68;74.91;97066.06;6123304;23;20160;-89
2022/07/03 10:03:26;;;;;;;3.53;3.23;;;;;;;21.02;74.79;97251.16;6151011;23;20166;-91
2022/07/03 10:06:28;;;;;;;2.93;2.63;;;;;;;23.97;74.88;97753.13;6132519;23;20155;-90
2022/07/03 10:09:36;;;;;;;4.20;2.70;;;;;;;23.98;74.50;97777.09;6130165;23;20198;-87
2022/07/03 10:13:16;;;;;;;5.70;2.97;;;;;;;18.44;74.14;96813.56;6151177;23;20206;-89
2022/07/03 10:16:31;;;;;;;4.90;2.87;;;;;;;23.99;74.33;97745.47;6134709;23;20185;-88
2022/07/03 10:19:14;;;;;;;3.57;2.57;;;;;;;23.99;73.17;97741.19;6122616;23;20171;-90
2022/07/03 10:21:41;;;;;;;2.80;2.60;;;;;;;20.00;72.78;97095.03;6087016;23;20174;-90
2022/07/03 10:24:29;;;;;;;3.30;2.50;;;;;;;20.50;73.54;97142.41;6109251;23;20179;-90
2022/07/03 10:30:38;;;;;;;2.80;2.40;;;;;;;21.07;73.59;97293.03;6151314;23;20194;-94
2022/07/03 10:33:16;;;;;;;2.63;2.10;;;;;;;21.00;72.62;97219.59;6127602;23;20155;-91
2022/07/03 10:35:52;;;;;;;2.90;2.13;;;;;;;24.02;71.42;97733.56;6130105;23;20159;-91
2022/07/03 10:55:09;;;;;;;5.00;2.20;;;;;;;20.21;70.99;97133.06;6100221;23;20211;-90
2022/07/03 10:57:37;;;;;;;2.73;2.30;;;;;;;20.54;70.42;97096.59;6091222;23;20595;-91
2022/07/03 11:00:11;;;;;;;2.30;2.10;;;;;;;24.13;69.48;97706.41;6066472;23;20179;-90
2022/07/03 11:02:44;;;;;;;2.10;2.00;;;;;;;24.13;69.40;97700.44;6094648;23;20171;-91
2022/07/03 11:05:19;;;;;;;2.20;2.10;;;;;;;21.15;70.49;97207.22;6070918;23;20160;-89
2022/07/03 11:07:49;;;;;;;2.80;2.60;;;;;;;24.13;71.29;97701.28;6068652;23;20667;-90
2022/07/03 11:10:16;;;;;;;5.57;2.70;;;;;;;24.13;71.87;97703.00;6112789;23;20179;-90
2022/07/03 11:12:56;;;;;;;3.43;2.40;;;;;;;24.13;71.83;97708.13;6115995;23;20175;-89
2022/07/03 11:15:44;;;;;;;2.83;2.27;;;;;;;22.89;68.69;97483.75;6097502;23;20176;-91
2022/07/03 11:18:25;;;;;;;4.20;2.47;;;;;;;23.47;71.00;97585.97;6075093;23;20191;-93
2022/07/03 11:20:52;;;;;;;2.30;2.10;;;;;;;24.15;71.19;97704.75;6076985;23;20159;-91
2022/07/03 11:23:28;;;;;;;4.40;2.03;;;;;;;24.15;66.42;97699.63;6119060;23;20144;-92
2022/07/03 11:34:01;;;;;;;3.00;2.10;;;;;;;19.89;67.09;96974.88;6091716;23;20188;-89
2022/07/03 11:36:48;;;;;;;2.60;2.33;;;;;;;18.86;67.96;96806.34;6044919;23;20269;-89
2022/07/03 11:39:57;;;;;;;2.67;2.47;;;;;;;22.90;68.95;97449.56;6064756;23;20157;-91
2022/07/03 11:43:15;;;;;;;1.70;1.60;;;;;;;24.21;67.62;97684.34;6046986;23;20198;-92
2022/07/03 11:46:45;;;;;;;4.63;2.47;;;;;;;24.23;68.67;97680.09;6043994;23;20164;-89
2022/07/03 11:50:27;;;;;;;2.30;2.20;;;;;;;19.64;67.73;96887.50;6065049;23;20165;-90
2022/07/03 11:53:59;;;;;;;3.00;2.10;;;;;;;19.39;67.49;96841.81;6065393;23;20157;-90
2022/07/03 11:57:01;;;;;;;2.40;2.20;;;;;;;21.40;67.68;97204.47;6065523;23;20217;-89
2022/07/03 12:00:20;;;;;;;2.73;2.17;;;;;;;19.35;66.89;96829.81;6067214;23;20212;-90
2022/07/03 12:11:01;;;;;;;1.73;1.60;;;;;;;24.27;62.21;97660.47;6065456;23;20169;-90
2022/07/03 12:14:29;;;;;;;1.70;1.60;;;;;;;24.29;61.89;97669.97;6065012;23;20164;-90
2022/07/03 12:17:34;;;;;;;5.47;2.70;;;;;;;21.23;66.75;97182.72;6082124;23;20200;-89
2022/07/03 12:28:19;;;;;;;3.50;2.30;;;;;;;21.37;64.94;97154.94;6092355;23;20184;-93
2022/07/03 12:31:14;;;;;;;2.30;2.10;;;;;;;20.05;66.26;96937.03;6049676;23;20156;-93
2022/07/03 12:34:03;;;;;;;1.90;1.80;;;;;;;20.85;66.75;97070.16;6058374;23;20168;-89
2022/07/03 12:36:59;;;;;;;2.77;2.00;;;;;;;23.26;67.25;97482.06;6050174;23;20176;-93
2022/07/03 12:39:42;;;;;;;2.17;2.00;;;;;;;21.77;66.95;97241.19;6068126;23;20167;-92
2022/07/03 12:42:21;;;;;;;2.03;1.80;;;;;;;24.28;67.44;97657.94;6067888;23;20165;-93
2022/07/03 12:45:04;;;;;;;2.10;1.90;;;;;;;23.55;67.47;97516.03;6092981;23;20148;-94
2022/07/03 13:22:08;;;;;;;2.40;2.20;;;;;;;18.89;69.83;96789.44;6077895;23;20204;-91
2022/07/03 13:25:42;;;;;;;2.30;2.10;;;;;;;24.01;69.40;97618.84;6009480;23;20179;-90
2022/07/03 13:28:55;;;;;;;2.10;2.00;;;;;;;19.22;70.30;96832.81;6083690;23;20210;-90
2022/07/03 13:36:49;;;;;;;2.67;2.40;;;;;;;23.95;70.11;97615.28;6081855;23;20203;-90
2022/07/03 13:40:54;;;;;;;2.70;2.17;;;;;;;23.92;70.03;97605.78;6083180;23;20155;-90
2022/07/03 13:56:45;;;;;;;2.27;2.00;;;;;;;23.88;70.32;97604.00;5911512;24;20213;-89
2022/07/03 14:00:18;;;;;;;2.30;2.10;;;;;;;18.62;71.13;96749.66;5882613;24;20176;-89
2022/07/03 14:11:50;;;;;;;3.10;2.30;;;;;;;18.24;71.39;96682.38;5919428;24;20729;-89
2022/07/03 14:15:38;;;;;;;2.13;1.93;;;;;;;23.83;70.96;97582.47;5999095;24;20201;-89
2022/07/03 14:32:31;;;;;;;17.50;3.60;;;;;;;22.09;70.68;97269.25;6058102;23;20608;-88
2022/07/03 14:39:16;;;;;;;17.67;3.90;;;;;;;18.69;72.55;96705.72;6046594;23;20625;-88
2022/07/03 14:41:48;;;;;;;16.27;3.73;;;;;;;19.94;72.04;96906.16;5998772;23;20184;-89
2022/07/03 14:48:40;;;;;;;24.67;5.43;;;;;;;22.79;72.94;97387.84;6020481;23;20196;-89
2022/07/03 14:51:28;;;;;;;20.40;4.90;;;;;;;19.51;72.41;96871.03;5949253;23;20237;-89
2022/07/03 14:57:34;;;;;;;19.93;4.83;;;;;;;23.86;72.49;97559.44;5995066;23;20204;-90
2022/07/03 15:00:09;;;;;;;21.77;4.60;;;;;;;20.91;72.48;97060.97;6007945;23;20209;-90
2022/07/03 15:03:04;;;;;;;20.43;4.90;;;;;;;22.15;72.19;97278.78;5988014;23;20165;-88
2022/07/03 15:05:30;;;;;;;21.73;5.17;;;;;;;18.83;71.79;96691.69;5972658;23;20237;-90
2022/07/03 15:08:09;;;;;;;23.53;4.97;;;;;;;23.87;72.52;97552.63;5994288;23;20665;-89
2022/07/03 15:10:36;;;;;;;18.30;4.87;;;;;;;23.50;72.54;97516.78;6023490;23;20161;-89
2022/07/03 15:13:04;;;;;;;23.63;4.47;;;;;;;20.89;72.16;97060.06;5992357;23;20169;-89
2022/07/03 15:15:31;;;;;;;25.37;5.63;;;;;;;22.47;72.62;97313.66;5989574;23;20236;-88
2022/07/03 15:18:01;;;;;;;21.50;4.17;;;;;;;21.86;71.88;97267.84;6013911;23;20201;-89
2022/07/03 15:20:35;;;;;;;17.70;4.23;;;;;;;21.59;72.70;97167.41;5996182;23;20166;-89
2022/07/03 15:23:04;;;;;;;14.40;4.60;;;;;;;20.08;72.80;96938.00;6016741;23;20212;-88
2022/07/03 15:25:31;;;;;;;22.00;4.50;;;;;;;19.91;72.52;96890.78;5993817;23;20566;-89
2022/07/03 15:27:58;;;;;;;18.17;4.73;;;;;;;21.89;72.51;97205.66;6016802;23;20200;-88
2022/07/03 15:30:25;;;;;;;16.30;4.77;;;;;;;22.52;72.59;97335.13;6024474;23;20188;-88
2022/07/03 15:32:56;;;;;;;12.20;4.13;;;;;;;22.25;72.71;97289.25;6016744;23;20565;-89
2022/07/03 15:35:23;;;;;;;19.57;4.63;;;;;;;21.14;72.80;97094.75;6038978;23;20165;-89
2022/07/03 15:38:12;;;;;;;11.77;3.93;;;;;;;23.87;72.83;97547.50;6014664;23;20228;-90
2022/07/03 15:40:55;;;;;;;11.13;4.03;;;;;;;23.23;72.90;97429.81;6054165;23;20165;-89
2022/07/03 15:44:20;;;;;;;13.57;4.07;;;;;;;19.09;72.48;96757.75;6075726;23;20172;-90
2022/07/03 15:47:47;;;;;;;16.10;4.00;;;;;;;23.87;72.91;97534.66;6028327;23;20190;-88
2022/07/03 15:58:25;;;;;;;9.53;4.03;;;;;;;23.84;72.99;97525.22;6037827;23;20215;-91
2022/07/03 16:16:14;;;;;;;6.57;3.10;;;;;;;20.84;71.12;97030.97;6094968;23;20160;-87
2022/07/03 16:21:37;;;;;;;9.67;4.17;;;;;;;20.93;72.70;97025.25;6102138;23;20191;-89
2022/07/03 16:24:10;;;;;;;8.63;3.47;;;;;;;20.96;73.53;97015.97;6105971;23;20162;-88
2022/07/03 16:28:04;;;;;;;9.57;3.90;;;;;;;19.11;73.52;96742.50;6117206;23;20178;-87
2022/07/03 16:31:07;;;;;;;15.10;4.33;;;;;;;18.25;72.96;96549.31;6131050;23;20179;-89
2022/07/03 16:34:32;;;;;;;7.83;4.30;;;;;;;21.42;73.08;97100.56;6133322;23;20214;-90
2022/07/03 16:37:45;;;;;;;12.30;4.57;;;;;;;18.54;73.09;96636.59;6124518;23;20174;-87
2022/07/03 16:40:35;;;;;;;8.60;4.63;;;;;;;20.09;73.85;96855.53;6152693;23;20151;-88
2022/07/03 16:43:15;;;;;;;11.47;5.20;;;;;;;21.03;72.95;97051.06;6129875;23;20161;-90
2022/07/03 16:45:42;;;;;;;12.27;5.33;;;;;;;20.90;72.99;97003.03;6083495;23;20162;-90
2022/07/03 16:48:17;;;;;;;13.23;5.30;;;;;;;22.72;73.34;97309.13;6082101;23;20508;-89
2022/07/03 16:51:04;;;;;;;11.00;5.13;;;;;;;21.75;73.09;97145.63;6080307;23;20611;-89
2022/07/03 16:53:31;;;;;;;12.10;5.23;;;;;;;21.09;72.98;97032.47;6083508;23;20619;-90
2022/07/03 16:55:58;;;;;;;12.07;5.40;;;;;;;20.90;72.50;97002.19;6130899;23;20179;-90
2022/07/03 16:58:24;;;;;;;16.90;6.50;;;;;;;22.92;72.85;97348.81;6105190;23;20238;-90
2022/07/03 17:00:51;;;;;;;20.07;8.90;;;;;;;22.62;73.32;97285.84;6079340;23;20179;-91
2022/07/03 17:03:19;;;;;;;24.97;10.73;;;;;;;21.22;72.98;97078.78;6080341;23;20210;-90
2022/07/03 17:05:47;;;;;;;26.13;11.70;;;;;;;23.85;73.70;97493.56;6077995;23;20228;-89
2022/07/03 17:08:17;;;;;;;31.30;12.50;;;;;;;22.61;73.38;97307.16;6077841;23;20516;-88
2022/07/03 17:10:46;;;;;;;31.33;12.50;;;;;;;21.67;73.13;97156.53;6079051;23;20179;-89
2022/07/03 17:13:13;;;;;;;33.73;14.43;;;;;;;20.85;72.64;97049.72;6080044;23;20171;-89
2022/07/03 17:15:41;;;;;;;35.23;14.50;;;;;;;20.11;72.61;96859.00;6098465;23;20200;-89
2022/07/03 17:18:08;;;;;;;35.50;14.47;;;;;;;22.67;73.01;97308.16;6078734;23;20191;-88
2022/07/03 17:20:38;;;;;;;28.80;15.30;;;;;;;21.70;73.58;97177.06;6055180;23;20175;-89
2022/07/03 17:23:09;;;;;;;31.40;14.03;;;;;;;23.84;72.69;97508.94;6072341;23;20216;-89
2022/07/03 17:25:44;;;;;;;30.30;14.10;;;;;;;20.05;73.80;96896.22;6073364;23;20185;-89
2022/07/03 17:28:12;;;;;;;35.50;14.40;;;;;;;21.36;73.45;97084.19;6049676;23;20203;-88
2022/07/03 17:30:41;;;;;;;33.27;14.40;;;;;;;23.84;73.64;97503.78;6049169;23;20250;-89
2022/07/03 17:33:09;;;;;;;30.73;14.03;;;;;;;21.03;73.21;97035.75;6072894;23;20172;-89
2022/07/03 17:35:38;;;;;;;30.07;13.27;;;;;;;19.53;73.03;96756.38;6047727;23;20179;-88
2022/07/03 17:38:09;;;;;;;30.10;13.80;;;;;;;20.97;73.42;97004.06;6047243;23;20199;-88
2022/07/03 17:40:56;;;;;;;30.33;13.20;;;;;;;19.80;73.18;96796.16;6056212;23;20231;-89
2022/07/03 17:43:23;;;;;;;32.57;13.63;;;;;;;21.27;73.10;97049.09;6047947;23;20508;-87
2022/07/03 17:45:49;;;;;;;28.17;13.13;;;;;;;20.45;73.30;96929.56;6046384;23;20167;-88
2022/07/03 17:48:16;;;;;;;28.40;12.77;;;;;;;20.21;73.16;96894.13;6047802;23;20196;-88
2022/07/03 17:50:43;;;;;;;29.83;12.73;;;;;;;19.73;73.35;96793.44;6025737;23;20231;-89
2022/07/03 17:53:12;;;;;;;21.43;11.20;;;;;;;20.43;73.93;96929.53;6049089;23;20624;-89
2022/07/03 17:55:39;;;;;;;27.70;12.20;;;;;;;19.21;73.53;96727.50;6072314;23;20171;-90
2022/07/03 17:58:06;;;;;;;25.10;12.23;;;;;;;20.69;73.26;96987.19;6075039;23;20196;-89
2022/07/03 18:00:32;;;;;;;29.80;12.30;;;;;;;22.92;73.29;97355.66;6053988;23;20203;-90
2022/07/03 18:02:59;;;;;;;26.43;11.73;;;;;;;20.84;73.32;96991.81;6050548;23;20167;-89
2022/07/03 18:05:28;;;;;;;27.93;12.40;;;;;;;20.95;73.45;97051.69;6045205;23;20175;-89
2022/07/03 18:08:09;;;;;;;31.00;13.03;;;;;;;23.47;73.81;97419.25;6067973;23;20278;-89
2022/07/03 18:11:16;;;;;;;25.80;11.00;;;;;;;23.79;73.49;97465.22;6045502;23;20168;-89
2022/07/03 18:13:54;;;;;;;24.37;11.10;;;;;;;22.72;73.62;97293.75;6068219;23;20167;-90
2022/07/03 18:16:32;;;;;;;25.67;11.80;;;;;;;22.86;73.40;97312.81;6046399;23;20210;-88
2022/07/03 18:19:01;;;;;;;27.13;11.30;;;;;;;19.35;73.20;96754.25;6057857;23;20515;-90
2022/07/03 18:24:24;;;;;;;22.83;11.20;;;;;;;23.77;73.61;97469.44;6073754;23;20189;-90
2022/07/03 18:26:56;;;;;;;18.07;9.87;;;;;;;23.54;73.44;97429.66;6072315;23;20291;-92
2022/07/03 18:29:37;;;;;;;19.67;9.50;;;;;;;22.83;73.30;97309.34;6029985;23;20216;-92
2022/07/03 18:32:18;;;;;;;27.53;11.43;;;;;;;22.16;73.31;97203.69;6026935;23;20177;-90
2022/07/03 18:34:47;;;;;;;20.93;10.03;;;;;;;23.62;73.77;97443.47;6025546;23;20195;-90
2022/07/03 18:37:17;;;;;;;22.27;10.50;;;;;;;19.71;73.44;96767.91;6045503;23;20200;-89
2022/07/03 18:39:45;;;;;;;22.30;10.93;;;;;;;19.48;74.13;96740.97;6022486;23;20259;-90
2022/07/03 18:42:13;;;;;;;18.10;9.33;;;;;;;22.66;73.07;97338.84;5996553;23;20188;-91
2022/07/03 18:44:40;;;;;;;22.07;9.97;;;;;;;20.83;73.29;96965.41;6044343;23;20184;-89
2022/07/03 18:47:19;;;;;;;18.80;10.13;;;;;;;22.07;73.23;97185.59;6064956;23;20190;-92
2022/07/03 18:49:46;;;;;;;19.80;9.70;;;;;;;22.34;73.41;97237.38;6126378;23;20167;-93
2022/07/03 18:52:19;;;;;;;24.43;9.70;;;;;;;22.15;73.66;97191.75;6126794;23;20187;-93
2022/07/03 19:00:13;;;;;;;19.20;9.30;;;;;;;21.96;73.59;97172.56;6108131;23;20183;-93
2022/07/03 19:07:56;;;;;;;15.40;8.27;;;;;;;23.76;73.41;97469.41;6120274;23;20567;-93
2022/07/03 19:10:24;;;;;;;14.20;7.43;;;;;;;22.03;73.64;97182.13;6123947;23;20184;-94
2022/07/03 19:13:07;;;;;;;19.23;8.17;;;;;;;23.75;73.61;97463.44;6075434;23;20168;-93
2022/07/03 19:15:37;;;;;;;13.63;7.60;;;;;;;22.11;73.37;97190.81;6122945;23;20151;-93
2022/07/03 19:18:05;;;;;;;14.83;7.40;;;;;;;21.66;73.79;97115.56;6070297;23;20184;-93
2022/07/03 19:20:31;;;;;;;17.03;9.03;;;;;;;21.48;73.69;97089.59;6046482;23;20161;-93
2022/07/03 19:22:58;;;;;;;15.07;7.57;;;;;;;22.26;73.75;97231.25;6070167;23;20171;-93
2022/07/03 19:25:25;;;;;;;15.37;7.53;;;;;;;22.34;73.65;97239.94;6070015;23;20156;-93
2022/07/03 19:27:53;;;;;;;13.10;7.43;;;;;;;22.08;73.71;97187.34;6070110;23;20530;-93
2022/07/03 19:30:21;;;;;;;14.60;7.90;;;;;;;21.80;73.39;97129.56;6070319;23;20189;-94
2022/07/03 19:32:48;;;;;;;16.67;7.40;;;;;;;22.39;73.60;97258.84;6047572;23;20156;-93
2022/07/03 19:35:15;;;;;;;13.80;7.80;;;;;;;21.97;73.69;97166.63;6070918;23;20177;-93
2022/07/03 19:37:44;;;;;;;14.03;6.87;;;;;;;22.13;73.42;97189.16;6070605;23;20188;-93
2022/07/03 19:40:11;;;;;;;13.93;7.70;;;;;;;21.50;73.32;97106.69;6070358;23;20185;-93
2022/07/03 19:42:39;;;;;;;13.13;7.33;;;;;;;22.35;73.65;97265.56;6069649;23;20149;-93
2022/07/03 19:45:06;;;;;;;14.00;7.17;;;;;;;22.19;73.43;97231.91;6068583;23;20152;-93
2022/07/03 19:47:33;;;;;;;12.70;6.80;;;;;;;21.60;73.44;97115.44;6069889;23;20184;-92
2022/07/03 19:50:00;;;;;;;15.40;7.50;;;;;;;21.65;73.34;97131.75;6069736;23;20221;-93
2022/07/03 19:52:26;;;;;;;14.40;7.23;;;;;;;22.19;73.39;97214.00;6093234;23;20160;-93
2022/07/03 19:54:53;;;;;;;13.43;6.77;;;;;;;22.46;73.53;97260.69;6068984;23;20177;-94
2022/07/03 19:57:20;;;;;;;14.07;7.23;;;;;;;22.35;74.04;97255.34;6046453;23;20195;-93
2022/07/03 19:59:47;;;;;;;11.50;6.67;;;;;;;21.91;73.48;97174.19;6042280;23;20184;-94
2022/07/03 20:02:13;;;;;;;18.07;7.73;;;;;;;21.94;73.71;97171.69;6064803;23;20185;-94
2022/07/03 20:04:40;;;;;;;12.07;6.67;;;;;;;22.08;73.75;97207.81;6065225;23;20171;-92
2022/07/03 20:07:07;;;;;;;11.87;6.27;;;;;;;21.66;73.44;97142.03;6065639;23;20208;-93
2022/07/03 20:09:34;;;;;;;13.77;6.70;;;;;;;22.49;73.53;97302.59;6043096;23;20220;-94
2022/07/03 20:12:00;;;;;;;14.13;5.63;;;;;;;22.23;73.60;97231.19;6043153;23;20161;-93
2022/07/03 20:14:27;;;;;;;12.47;6.40;;;;;;;22.01;73.28;97188.88;6066020;23;20459;-93
2022/07/03 20:16:54;;;;;;;10.13;6.20;;;;;;;22.67;73.65;97314.97;6043001;23;20232;-93
2022/07/03 20:19:21;;;;;;;14.40;6.27;;;;;;;22.85;73.65;97340.97;6066681;23;20535;-93
2022/07/03 20:21:48;;;;;;;12.70;6.17;;;;;;;22.90;73.66;97347.06;6065673;23;20161;-91
2022/07/03 20:27:08;;;;;;;11.57;6.10;;;;;;;22.42;73.40;97285.38;6070153;23;20180;-93
2022/07/03 20:29:46;;;;;;;13.60;6.33;;;;;;;21.81;73.65;97144.06;6066912;23;20175;-92
2022/07/03 20:32:17;;;;;;;9.57;5.87;;;;;;;22.33;73.61;97251.91;6067473;23;20157;-93
2022/07/03 20:34:43;;;;;;;13.63;5.77;;;;;;;22.00;73.73;97187.16;6067264;23;20163;-93
2022/07/03 20:37:11;;;;;;;10.03;6.10;;;;;;;22.33;74.00;97240.78;6067215;23;20222;-93
2022/07/03 20:39:39;;;;;;;12.50;6.50;;;;;;;21.67;73.36;97128.41;6042945;23;20196;-94
2022/07/03 20:42:06;;;;;;;13.63;6.33;;;;;;;21.68;73.68;97140.34;6066339;23;20180;-93
2022/07/03 20:44:33;;;;;;;8.87;5.40;;;;;;;21.97;73.35;97210.13;6066602;23;20164;-93
2022/07/03 20:47:20;;;;;;;9.97;5.93;;;;;;;23.50;73.92;97452.66;6070702;23;20185;-92
2022/07/03 20:49:47;;;;;;;11.97;6.03;;;;;;;22.09;73.43;97220.63;6069170;23;20186;-94
2022/07/03 20:52:14;;;;;;;9.17;5.47;;;;;;;22.74;73.46;97327.09;6092216;23;20179;-93
2022/07/03 20:54:41;;;;;;;10.33;5.90;;;;;;;22.32;73.55;97285.16;6093265;23;20156;-93
2022/07/03 21:02:30;;;;;;;11.50;6.00;;;;;;;21.90;73.36;97192.91;6109129;23;20163;-93
2022/07/03 21:04:58;;;;;;;9.17;5.13;;;;;;;22.46;73.25;97296.53;6097776;23;20160;-93
2022/07/03 21:07:25;;;;;;;10.17;5.17;;;;;;;22.17;73.53;97248.97;6074713;23;20199;-94
2022/07/03 21:09:52;;;;;;;10.00;5.63;;;;;;;21.88;72.94;97221.84;6070062;23;20662;-93
2022/07/03 21:12:21;;;;;;;8.90;5.30;;;;;;;22.56;73.27;97324.13;6070590;23;20167;-93
2022/07/03 21:14:47;;;;;;;8.37;4.83;;;;;;;23.10;73.58;97426.13;6069921;23;20156;-93
2022/07/03 21:17:15;;;;;;;8.73;5.00;;;;;;;22.27;73.40;97263.69;6070449;23;20191;-93
2022/07/03 21:19:42;;;;;;;7.87;5.17;;;;;;;21.71;73.49;97178.78;6094049;23;20172;-93
2022/07/03 21:22:09;;;;;;;8.40;5.07;;;;;;;21.63;73.46;97167.53;6069934;23;20167;-93
2022/07/03 21:24:35;;;;;;;10.13;4.80;;;;;;;21.91;73.36;97206.56;6070953;23;20204;-93
2022/07/03 21:27:19;;;;;;;7.23;4.63;;;;;;;22.20;73.61;97282.31;6118291;23;20215;-93
2022/07/03 21:29:46;;;;;;;8.73;5.40;;;;;;;22.35;73.42;97295.47;6069963;23;20231;-92
2022/07/03 21:32:13;;;;;;;8.77;4.97;;;;;;;22.32;73.54;97303.06;6070548;23;20152;-92
2022/07/03 21:34:40;;;;;;;8.67;4.63;;;;;;;23.28;73.83;97470.16;6048172;23;20151;-93
2022/07/03 21:37:07;;;;;;;8.87;4.40;;;;;;;21.42;73.49;97146.56;6070861;23;20180;-93
2022/07/03 21:39:35;;;;;;;9.63;4.47;;;;;;;22.24;73.75;97284.09;6070630;23;20159;-92
2022/07/03 21:42:02;;;;;;;9.23;4.87;;;;;;;21.30;73.90;97132.63;6069920;23;20159;-93
2022/07/03 21:44:29;;;;;;;8.83;4.80;;;;;;;22.28;73.42;97301.25;6092549;23;20171;-93
2022/07/03 21:46:56;;;;;;;7.47;4.77;;;;;;;22.14;73.73;97271.94;6069239;23;20199;-93
2022/07/03 21:49:23;;;;;;;6.67;4.53;;;;;;;21.39;73.40;97148.19;6069543;23;20192;-93
2022/07/03 21:51:49;;;;;;;8.40;4.90;;;;;;;21.76;73.55;97193.41;6093166;23;20191;-94
2022/07/03 21:54:17;;;;;;;6.50;4.73;;;;;;;22.16;74.04;97260.00;6093381;23;20253;-93
2022/07/03 21:56:44;;;;;;;6.90;4.37;;;;;;;21.67;73.40;97182.09;6093728;23;20180;-93